sensor_id;sensor_type;location;lat;lon;timestamp;temperature;humidity
9410;DHT22;4744;52.576;13.568;2023-07-13T00:00:46;17.00;1.00
9410;DHT22;4744;52.576;13.568;2023-07-13T00:03:15;17.00;1.00
9410;DHT22;4744;52.576;13.568;2023-07-13T00:05:43;17.00;1.00
9410;DHT22;4744;52.576;13.568;2023-07-13T00:08:10;16.90;1.00
9410;DHT22;4744;52.576;13.568;2023-07-13T00:10:39;16.90;1.00
9410;DHT22;4744;52.576;13.568;2023-07-13T00:13:07;17.00;1.00
9410;DHT22;4744;52.576;13.568;2023-07-13T00:15:35;17.00;1.00
9410;DHT22;4744;52.576;13.568;2023-07-13T00:18:02;16.90;1.00
9410;DHT22;4744;52.576;13.568;2023-07-13T00:20:30;16.90;1.00
9410;DHT22;4744;52.576;13.568;2023-07-13T00:22:58;16.90;1.00
9410;DHT22;4744;52.576;13.568;2023-07-13T00:25:25;16.90;1.00
9410;DHT22;4744;52.576;13.568;2023-07-13T00:27:53;16.90;1.00
9410;DHT22;4744;52.576;13.568;2023-07-13T00:30:21;16.80;1.00
9410;DHT22;4744;52.576;13.568;2023-07-13T00:32:48;16.80;1.00
9410;DHT22;4744;52.576;13.568;2023-07-13T00:35:15;16.80;1.00
9410;DHT22;4744;52.576;13.568;2023-07-13T00:37:44;16.90;1.00
9410;DHT22;4744;52.576;13.568;2023-07-13T00:40:12;16.90;1.00
9410;DHT22;4744;52.576;13.568;2023-07-13T00:42:39;16.90;1.00
9410;DHT22;4744;52.576;13.568;2023-07-13T00:48:15;16.90;1.00
9410;DHT22;4744;52.576;13.568;2023-07-13T00:50:44;16.90;1.00
9410;DHT22;4744;52.576;13.568;2023-07-13T00:53:14;16.90;1.00
9410;DHT22;4744;52.576;13.568;2023-07-13T00:55:42;16.90;1.00
9410;DHT22;4744;52.576;13.568;2023-07-13T00:58:09;16.90;1.00
9410;DHT22;4744;52.576;13.568;2023-07-13T01:00:36;16.90;1.00
9410;DHT22;4744;52.576;13.568;2023-07-13T01:03:05;16.90;1.00
9410;DHT22;4744;52.576;13.568;2023-07-13T01:05:34;16.80;1.00
9410;DHT22;4744;52.576;13.568;2023-07-13T01:08:02;16.80;1.00
9410;DHT22;4744;52.576;13.568;2023-07-13T01:10:32;16.80;1.00
9410;DHT22;4744;52.576;13.568;2023-07-13T01:13:04;16.80;1.00
9410;DHT22;4744;52.576;13.568;2023-07-13T01:15:36;16.80;1.00
9410;DHT22;4744;52.576;13.568;2023-07-13T01:18:05;16.80;1.00
9410;DHT22;4744;52.576;13.568;2023-07-13T01:20:32;16.90;1.00
9410;DHT22;4744;52.576;13.568;2023-07-13T01:23:04;16.90;1.00
9410;DHT22;4744;52.576;13.568;2023-07-13T01:25:32;16.80;1.00
9410;DHT22;4744;52.576;13.568;2023-07-13T01:28:00;16.80;1.00
9410;DHT22;4744;52.576;13.568;2023-07-13T01:30:27;16.80;1.00
9410;DHT22;4744;52.576;13.568;2023-07-13T01:32:54;16.70;1.00
9410;DHT22;4744;52.576;13.568;2023-07-13T01:35:21;16.70;1.00
9410;DHT22;4744;52.576;13.568;2023-07-13T01:37:50;16.70;1.00
9410;DHT22;4744;52.576;13.568;2023-07-13T01:40:19;16.60;1.00
9410;DHT22;4744;52.576;13.568;2023-07-13T01:42:46;16.60;1.00
9410;DHT22;4744;52.576;13.568;2023-07-13T01:45:13;16.50;1.00
9410;DHT22;4744;52.576;13.568;2023-07-13T01:47:40;16.40;1.00
9410;DHT22;4744;52.576;13.568;2023-07-13T01:50:08;16.50;1.00
9410;DHT22;4744;52.576;13.568;2023-07-13T01:52:35;16.40;1.00
9410;DHT22;4744;52.576;13.568;2023-07-13T01:55:02;16.40;1.00
9410;DHT22;4744;52.576;13.568;2023-07-13T01:57:30;16.40;1.00
9410;DHT22;4744;52.576;13.568;2023-07-13T01:59:57;16.30;1.00
9410;DHT22;4744;52.576;13.568;2023-07-13T02:02:24;16.30;1.00
9410;DHT22;4744;52.576;13.568;2023-07-13T02:04:51;16.20;1.00
9410;DHT22;4744;52.576;13.568;2023-07-13T02:07:18;16.20;1.00
9410;DHT22;4744;52.576;13.568;2023-07-13T02:09:45;16.20;1.00
9410;DHT22;4744;52.576;13.568;2023-07-13T02:12:12;16.20;1.00
9410;DHT22;4744;52.576;13.568;2023-07-13T02:14:40;16.10;1.00
9410;DHT22;4744;52.576;13.568;2023-07-13T02:17:09;16.10;1.00
9410;DHT22;4744;52.576;13.568;2023-07-13T02:19:36;16.10;1.00
9410;DHT22;4744;52.576;13.568;2023-07-13T02:22:04;16.00;1.00
9410;DHT22;4744;52.576;13.568;2023-07-13T02:24:31;15.90;1.00
9410;DHT22;4744;52.576;13.568;2023-07-13T02:26:58;15.80;1.00
9410;DHT22;4744;52.576;13.568;2023-07-13T02:29:25;15.70;1.00
9410;DHT22;4744;52.576;13.568;2023-07-13T02:31:53;15.70;1.00
9410;DHT22;4744;52.576;13.568;2023-07-13T02:34:20;15.60;1.00
9410;DHT22;4744;52.576;13.568;2023-07-13T02:36:47;15.50;1.00
9410;DHT22;4744;52.576;13.568;2023-07-13T02:39:14;15.40;1.00
9410;DHT22;4744;52.576;13.568;2023-07-13T02:41:41;15.30;1.00
9410;DHT22;4744;52.576;13.568;2023-07-13T02:44:07;15.30;1.00
9410;DHT22;4744;52.576;13.568;2023-07-13T02:46:36;15.30;1.00
9410;DHT22;4744;52.576;13.568;2023-07-13T02:49:05;15.30;1.00
9410;DHT22;4744;52.576;13.568;2023-07-13T02:51:32;15.30;1.00
9410;DHT22;4744;52.576;13.568;2023-07-13T02:53:59;15.20;1.00
9410;DHT22;4744;52.576;13.568;2023-07-13T02:56:28;15.10;1.00
9410;DHT22;4744;52.576;13.568;2023-07-13T02:58:56;15.00;1.00
9410;DHT22;4744;52.576;13.568;2023-07-13T03:01:23;14.90;1.00
9410;DHT22;4744;52.576;13.568;2023-07-13T03:03:51;14.90;1.00
9410;DHT22;4744;52.576;13.568;2023-07-13T03:06:20;14.90;1.00
9410;DHT22;4744;52.576;13.568;2023-07-13T03:08:48;14.90;1.00
9410;DHT22;4744;52.576;13.568;2023-07-13T03:11:19;14.90;1.00
9410;DHT22;4744;52.576;13.568;2023-07-13T03:13:46;15.00;1.00
9410;DHT22;4744;52.576;13.568;2023-07-13T03:16:15;15.00;1.00
9410;DHT22;4744;52.576;13.568;2023-07-13T03:18:42;15.00;1.00
9410;DHT22;4744;52.576;13.568;2023-07-13T03:21:09;14.90;1.00
9410;DHT22;4744;52.576;13.568;2023-07-13T03:23:38;14.90;1.00
9410;DHT22;4744;52.576;13.568;2023-07-13T03:26:07;14.80;1.00
9410;DHT22;4744;52.576;13.568;2023-07-13T03:28:35;14.80;1.00
9410;DHT22;4744;52.576;13.568;2023-07-13T03:31:04;14.80;1.00
9410;DHT22;4744;52.576;13.568;2023-07-13T03:33:31;14.80;1.00
9410;DHT22;4744;52.576;13.568;2023-07-13T03:35:58;14.80;1.00
9410;DHT22;4744;52.576;13.568;2023-07-13T03:38:25;14.80;1.00
9410;DHT22;4744;52.576;13.568;2023-07-13T03:40:54;14.80;1.00
9410;DHT22;4744;52.576;13.568;2023-07-13T03:43:21;14.80;1.00
9410;DHT22;4744;52.576;13.568;2023-07-13T03:45:47;14.90;1.00
9410;DHT22;4744;52.576;13.568;2023-07-13T03:48:15;14.90;1.00
9410;DHT22;4744;52.576;13.568;2023-07-13T03:50:42;14.90;1.00
9410;DHT22;4744;52.576;13.568;2023-07-13T03:53:09;14.90;1.00
9410;DHT22;4744;52.576;13.568;2023-07-13T03:55:36;15.00;1.00
9410;DHT22;4744;52.576;13.568;2023-07-13T03:58:26;15.00;1.00
9410;DHT22;4744;52.576;13.568;2023-07-13T04:00:53;15.00;1.00
9410;DHT22;4744;52.576;13.568;2023-07-13T04:03:20;15.10;1.00
9410;DHT22;4744;52.576;13.568;2023-07-13T04:05:48;15.10;1.00
9410;DHT22;4744;52.576;13.568;2023-07-13T04:08:14;15.10;1.00
9410;DHT22;4744;52.576;13.568;2023-07-13T04:10:42;15.20;1.00
9410;DHT22;4744;52.576;13.568;2023-07-13T04:13:09;15.20;1.00
9410;DHT22;4744;52.576;13.568;2023-07-13T04:15:39;15.20;1.00
9410;DHT22;4744;52.576;13.568;2023-07-13T04:18:06;15.30;1.00
9410;DHT22;4744;52.576;13.568;2023-07-13T04:20:33;15.40;1.00
9410;DHT22;4744;52.576;13.568;2023-07-13T04:23:00;15.50;1.00
9410;DHT22;4744;52.576;13.568;2023-07-13T04:25:27;15.60;1.00
9410;DHT22;4744;52.576;13.568;2023-07-13T04:27:54;15.60;1.00
9410;DHT22;4744;52.576;13.568;2023-07-13T04:30:21;15.70;1.00
9410;DHT22;4744;52.576;13.568;2023-07-13T04:32:52;15.80;1.00
9410;DHT22;4744;52.576;13.568;2023-07-13T04:35:19;15.90;1.00
9410;DHT22;4744;52.576;13.568;2023-07-13T04:37:47;16.00;1.00
9410;DHT22;4744;52.576;13.568;2023-07-13T04:40:16;16.10;1.00
9410;DHT22;4744;52.576;13.568;2023-07-13T04:42:43;16.10;1.00
9410;DHT22;4744;52.576;13.568;2023-07-13T04:45:12;16.20;1.00
9410;DHT22;4744;52.576;13.568;2023-07-13T04:47:40;16.40;1.00
9410;DHT22;4744;52.576;13.568;2023-07-13T04:50:09;16.50;1.00
9410;DHT22;4744;52.576;13.568;2023-07-13T04:52:37;16.60;1.00
9410;DHT22;4744;52.576;13.568;2023-07-13T04:55:05;16.60;1.00
9410;DHT22;4744;52.576;13.568;2023-07-13T04:57:32;16.70;1.00
9410;DHT22;4744;52.576;13.568;2023-07-13T04:59:59;16.80;1.00
9410;DHT22;4744;52.576;13.568;2023-07-13T05:02:26;16.90;1.00
9410;DHT22;4744;52.576;13.568;2023-07-13T05:04:54;17.00;1.00
9410;DHT22;4744;52.576;13.568;2023-07-13T05:07:22;17.10;1.00
9410;DHT22;4744;52.576;13.568;2023-07-13T05:09:49;17.30;1.00
9410;DHT22;4744;52.576;13.568;2023-07-13T05:12:16;17.40;1.00
9410;DHT22;4744;52.576;13.568;2023-07-13T05:14:43;17.50;1.00
9410;DHT22;4744;52.576;13.568;2023-07-13T05:17:10;17.60;1.00
9410;DHT22;4744;52.576;13.568;2023-07-13T05:19:37;17.60;1.00
9410;DHT22;4744;52.576;13.568;2023-07-13T05:22:04;17.70;1.00
9410;DHT22;4744;52.576;13.568;2023-07-13T05:24:32;17.80;1.00
9410;DHT22;4744;52.576;13.568;2023-07-13T05:26:59;17.80;1.00
9410;DHT22;4744;52.576;13.568;2023-07-13T05:29:26;17.90;1.00
9410;DHT22;4744;52.576;13.568;2023-07-13T05:31:53;18.00;1.00
9410;DHT22;4744;52.576;13.568;2023-07-13T05:34:20;18.10;1.00
9410;DHT22;4744;52.576;13.568;2023-07-13T05:36:48;18.20;1.00
9410;DHT22;4744;52.576;13.568;2023-07-13T05:39:15;18.30;1.00
9410;DHT22;4744;52.576;13.568;2023-07-13T05:41:43;18.30;1.00
9410;DHT22;4744;52.576;13.568;2023-07-13T05:44:10;18.40;1.00
9410;DHT22;4744;52.576;13.568;2023-07-13T05:46:37;18.50;1.00
9410;DHT22;4744;52.576;13.568;2023-07-13T05:49:04;18.60;1.00
9410;DHT22;4744;52.576;13.568;2023-07-13T05:51:31;18.70;1.00
9410;DHT22;4744;52.576;13.568;2023-07-13T05:53:58;18.80;1.00
9410;DHT22;4744;52.576;13.568;2023-07-13T05:56:25;18.90;1.00
9410;DHT22;4744;52.576;13.568;2023-07-13T05:58:53;19.00;1.00
9410;DHT22;4744;52.576;13.568;2023-07-13T06:01:20;19.10;1.00
9410;DHT22;4744;52.576;13.568;2023-07-13T06:03:49;19.20;1.00
9410;DHT22;4744;52.576;13.568;2023-07-13T06:06:16;19.20;1.00
9410;DHT22;4744;52.576;13.568;2023-07-13T06:08:43;19.40;1.00
9410;DHT22;4744;52.576;13.568;2023-07-13T06:11:14;19.40;1.00
9410;DHT22;4744;52.576;13.568;2023-07-13T06:13:41;19.50;1.00
9410;DHT22;4744;52.576;13.568;2023-07-13T06:16:10;19.60;1.00
9410;DHT22;4744;52.576;13.568;2023-07-13T06:18:37;19.70;1.00
9410;DHT22;4744;52.576;13.568;2023-07-13T06:21:08;19.70;1.00
9410;DHT22;4744;52.576;13.568;2023-07-13T06:23:35;19.80;1.00
9410;DHT22;4744;52.576;13.568;2023-07-13T06:26:03;19.90;1.00
9410;DHT22;4744;52.576;13.568;2023-07-13T06:28:31;19.90;1.00
9410;DHT22;4744;52.576;13.568;2023-07-13T06:30:58;19.90;1.00
9410;DHT22;4744;52.576;13.568;2023-07-13T06:33:26;20.00;1.00
9410;DHT22;4744;52.576;13.568;2023-07-13T06:35:53;20.10;1.00
9410;DHT22;4744;52.576;13.568;2023-07-13T06:38:21;20.10;1.00
9410;DHT22;4744;52.576;13.568;2023-07-13T06:40:48;20.20;1.00
9410;DHT22;4744;52.576;13.568;2023-07-13T06:43:15;20.30;1.00
9410;DHT22;4744;52.576;13.568;2023-07-13T06:45:44;20.30;1.00
9410;DHT22;4744;52.576;13.568;2023-07-13T06:48:13;20.50;1.00
9410;DHT22;4744;52.576;13.568;2023-07-13T06:50:41;20.50;1.00
9410;DHT22;4744;52.576;13.568;2023-07-13T06:53:08;20.60;1.00
9410;DHT22;4744;52.576;13.568;2023-07-13T06:55:35;20.70;1.00
9410;DHT22;4744;52.576;13.568;2023-07-13T06:58:02;20.80;1.00
9410;DHT22;4744;52.576;13.568;2023-07-13T07:00:29;20.90;1.00
9410;DHT22;4744;52.576;13.568;2023-07-13T07:02:57;20.90;1.00
9410;DHT22;4744;52.576;13.568;2023-07-13T07:05:24;21.00;1.00
9410;DHT22;4744;52.576;13.568;2023-07-13T07:07:53;21.10;1.00
9410;DHT22;4744;52.576;13.568;2023-07-13T07:10:20;21.10;1.00
9410;DHT22;4744;52.576;13.568;2023-07-13T07:12:48;21.20;1.00
9410;DHT22;4744;52.576;13.568;2023-07-13T07:15:15;21.20;1.00
9410;DHT22;4744;52.576;13.568;2023-07-13T07:17:42;21.20;1.00
9410;DHT22;4744;52.576;13.568;2023-07-13T07:20:10;21.30;1.00
9410;DHT22;4744;52.576;13.568;2023-07-13T07:22:38;21.30;1.00
9410;DHT22;4744;52.576;13.568;2023-07-13T07:25:06;21.40;1.00
9410;DHT22;4744;52.576;13.568;2023-07-13T07:27:33;21.50;1.00
9410;DHT22;4744;52.576;13.568;2023-07-13T07:30:00;21.60;1.00
9410;DHT22;4744;52.576;13.568;2023-07-13T07:32:29;21.70;1.00
9410;DHT22;4744;52.576;13.568;2023-07-13T07:34:56;21.70;1.00
9410;DHT22;4744;52.576;13.568;2023-07-13T07:37:23;21.90;1.00
9410;DHT22;4744;52.576;13.568;2023-07-13T07:39:50;21.90;1.00
9410;DHT22;4744;52.576;13.568;2023-07-13T07:42:18;21.90;1.00
9410;DHT22;4744;52.576;13.568;2023-07-13T07:44:45;22.00;1.00
9410;DHT22;4744;52.576;13.568;2023-07-13T07:47:12;22.10;1.00
9410;DHT22;4744;52.576;13.568;2023-07-13T07:49:39;22.20;1.00
9410;DHT22;4744;52.576;13.568;2023-07-13T07:52:07;22.30;1.00
9410;DHT22;4744;52.576;13.568;2023-07-13T07:54:34;22.40;1.00
9410;DHT22;4744;52.576;13.568;2023-07-13T07:57:01;22.50;1.00
9410;DHT22;4744;52.576;13.568;2023-07-13T07:59:29;22.70;1.00
9410;DHT22;4744;52.576;13.568;2023-07-13T08:01:56;22.80;1.00
9410;DHT22;4744;52.576;13.568;2023-07-13T08:04:23;22.90;1.00
9410;DHT22;4744;52.576;13.568;2023-07-13T08:06:50;22.80;1.00
9410;DHT22;4744;52.576;13.568;2023-07-13T08:09:17;22.90;1.00
9410;DHT22;4744;52.576;13.568;2023-07-13T08:11:44;22.90;1.00
9410;DHT22;4744;52.576;13.568;2023-07-13T08:14:11;22.80;1.00
9410;DHT22;4744;52.576;13.568;2023-07-13T08:16:39;22.70;1.00
9410;DHT22;4744;52.576;13.568;2023-07-13T08:19:06;22.70;1.00
9410;DHT22;4744;52.576;13.568;2023-07-13T08:21:33;22.70;1.00
9410;DHT22;4744;52.576;13.568;2023-07-13T08:23:59;22.60;1.00
9410;DHT22;4744;52.576;13.568;2023-07-13T08:26:26;22.70;1.00
9410;DHT22;4744;52.576;13.568;2023-07-13T08:28:53;22.70;1.00
9410;DHT22;4744;52.576;13.568;2023-07-13T08:31:20;22.70;1.00
9410;DHT22;4744;52.576;13.568;2023-07-13T08:33:49;22.80;1.00
9410;DHT22;4744;52.576;13.568;2023-07-13T08:36:16;22.80;1.00
9410;DHT22;4744;52.576;13.568;2023-07-13T08:38:42;22.80;1.00
9410;DHT22;4744;52.576;13.568;2023-07-13T08:41:12;22.90;1.00
9410;DHT22;4744;52.576;13.568;2023-07-13T08:43:41;22.90;1.00
9410;DHT22;4744;52.576;13.568;2023-07-13T08:46:13;23.00;1.00
9410;DHT22;4744;52.576;13.568;2023-07-13T08:48:46;23.10;1.00
9410;DHT22;4744;52.576;13.568;2023-07-13T08:51:37;23.10;1.00
9410;DHT22;4744;52.576;13.568;2023-07-13T08:54:19;23.20;1.00
9410;DHT22;4744;52.576;13.568;2023-07-13T08:56:49;23.10;1.00
9410;DHT22;4744;52.576;13.568;2023-07-13T08:59:20;23.20;1.00
9410;DHT22;4744;52.576;13.568;2023-07-13T09:02:00;23.20;1.00
9410;DHT22;4744;52.576;13.568;2023-07-13T09:04:35;23.20;1.00
9410;DHT22;4744;52.576;13.568;2023-07-13T09:07:14;23.10;1.00
9410;DHT22;4744;52.576;13.568;2023-07-13T09:09:52;23.10;1.00
9410;DHT22;4744;52.576;13.568;2023-07-13T09:12:26;22.90;1.00
9410;DHT22;4744;52.576;13.568;2023-07-13T09:14:56;22.90;1.00
9410;DHT22;4744;52.576;13.568;2023-07-13T09:17:27;22.90;1.00
9410;DHT22;4744;52.576;13.568;2023-07-13T09:19:59;22.80;1.00
9410;DHT22;4744;52.576;13.568;2023-07-13T09:22:29;22.90;1.00
9410;DHT22;4744;52.576;13.568;2023-07-13T09:25:02;23.00;1.00
9410;DHT22;4744;52.576;13.568;2023-07-13T09:27:35;23.10;1.00
9410;DHT22;4744;52.576;13.568;2023-07-13T09:30:17;23.10;1.00
9410;DHT22;4744;52.576;13.568;2023-07-13T09:32:51;23.20;1.00
9410;DHT22;4744;52.576;13.568;2023-07-13T09:35:21;23.10;1.00
9410;DHT22;4744;52.576;13.568;2023-07-13T09:37:50;23.10;1.00
9410;DHT22;4744;52.576;13.568;2023-07-13T09:40:27;23.20;1.00
9410;DHT22;4744;52.576;13.568;2023-07-13T09:42:56;23.30;1.00
9410;DHT22;4744;52.576;13.568;2023-07-13T09:45:29;23.50;1.00
9410;DHT22;4744;52.576;13.568;2023-07-13T09:48:00;23.60;1.00
9410;DHT22;4744;52.576;13.568;2023-07-13T09:50:30;23.70;1.00
9410;DHT22;4744;52.576;13.568;2023-07-13T09:53:00;23.90;1.00
9410;DHT22;4744;52.576;13.568;2023-07-13T09:55:30;24.00;1.00
9410;DHT22;4744;52.576;13.568;2023-07-13T09:57:59;24.10;1.00
9410;DHT22;4744;52.576;13.568;2023-07-13T10:00:30;24.30;1.00
9410;DHT22;4744;52.576;13.568;2023-07-13T10:03:00;24.40;1.00
9410;DHT22;4744;52.576;13.568;2023-07-13T10:05:37;24.60;1.00
9410;DHT22;4744;52.576;13.568;2023-07-13T10:08:09;24.70;1.00
9410;DHT22;4744;52.576;13.568;2023-07-13T10:10:41;24.80;1.00
9410;DHT22;4744;52.576;13.568;2023-07-13T10:13:28;24.80;1.00
9410;DHT22;4744;52.576;13.568;2023-07-13T10:15:56;25.00;1.00
9410;DHT22;4744;52.576;13.568;2023-07-13T10:18:24;25.00;1.00
9410;DHT22;4744;52.576;13.568;2023-07-13T10:20:54;25.10;1.00
9410;DHT22;4744;52.576;13.568;2023-07-13T10:23:33;25.20;1.00
9410;DHT22;4744;52.576;13.568;2023-07-13T10:26:01;25.30;1.00
9410;DHT22;4744;52.576;13.568;2023-07-13T10:28:31;25.50;1.00
9410;DHT22;4744;52.576;13.568;2023-07-13T10:31:00;25.60;1.00
9410;DHT22;4744;52.576;13.568;2023-07-13T10:33:28;25.70;1.00
9410;DHT22;4744;52.576;13.568;2023-07-13T10:36:05;25.90;1.00
9410;DHT22;4744;52.576;13.568;2023-07-13T10:38:36;26.00;1.00
9410;DHT22;4744;52.576;13.568;2023-07-13T10:41:05;26.10;1.00
9410;DHT22;4744;52.576;13.568;2023-07-13T10:43:35;26.30;1.00
9410;DHT22;4744;52.576;13.568;2023-07-13T10:46:05;26.40;1.00
9410;DHT22;4744;52.576;13.568;2023-07-13T10:48:33;26.30;1.00
9410;DHT22;4744;52.576;13.568;2023-07-13T10:51:04;26.10;1.00
9410;DHT22;4744;52.576;13.568;2023-07-13T10:53:33;25.90;1.00
9410;DHT22;4744;52.576;13.568;2023-07-13T10:56:04;25.60;1.00
9410;DHT22;4744;52.576;13.568;2023-07-13T10:58:38;25.50;1.00
9410;DHT22;4744;52.576;13.568;2023-07-13T11:01:08;25.50;1.00
9410;DHT22;4744;52.576;13.568;2023-07-13T11:03:46;25.30;1.00
9410;DHT22;4744;52.576;13.568;2023-07-13T11:06:16;25.00;1.00
9410;DHT22;4744;52.576;13.568;2023-07-13T11:08:54;25.00;1.00
9410;DHT22;4744;52.576;13.568;2023-07-13T11:11:36;25.20;1.00
9410;DHT22;4744;52.576;13.568;2023-07-13T11:14:04;25.30;1.00
9410;DHT22;4744;52.576;13.568;2023-07-13T11:16:51;25.20;1.00
9410;DHT22;4744;52.576;13.568;2023-07-13T11:19:39;25.10;1.00
9410;DHT22;4744;52.576;13.568;2023-07-13T11:22:16;25.00;1.00
9410;DHT22;4744;52.576;13.568;2023-07-13T11:24:51;24.90;1.00
9410;DHT22;4744;52.576;13.568;2023-07-13T11:27:38;24.80;1.00
9410;DHT22;4744;52.576;13.568;2023-07-13T11:30:22;24.80;1.00
9410;DHT22;4744;52.576;13.568;2023-07-13T11:32:52;24.80;1.00
9410;DHT22;4744;52.576;13.568;2023-07-13T11:35:33;25.10;1.00
9410;DHT22;4744;52.576;13.568;2023-07-13T11:38:01;25.60;1.00
9410;DHT22;4744;52.576;13.568;2023-07-13T11:40:29;25.90;1.00
9410;DHT22;4744;52.576;13.568;2023-07-13T11:43:00;26.00;1.00
9410;DHT22;4744;52.576;13.568;2023-07-13T11:45:28;26.10;1.00
9410;DHT22;4744;52.576;13.568;2023-07-13T11:47:55;26.30;1.00
9410;DHT22;4744;52.576;13.568;2023-07-13T11:50:25;26.40;1.00
9410;DHT22;4744;52.576;13.568;2023-07-13T11:52:54;26.50;1.00
9410;DHT22;4744;52.576;13.568;2023-07-13T11:55:23;26.70;1.00
9410;DHT22;4744;52.576;13.568;2023-07-13T11:57:53;26.80;1.00
9410;DHT22;4744;52.576;13.568;2023-07-13T12:00:28;26.70;1.00
9410;DHT22;4744;52.576;13.568;2023-07-13T12:02:57;26.60;1.00
9410;DHT22;4744;52.576;13.568;2023-07-13T12:05:26;26.60;1.00
9410;DHT22;4744;52.576;13.568;2023-07-13T12:07:53;26.40;1.00
9410;DHT22;4744;52.576;13.568;2023-07-13T12:10:23;26.40;1.00
9410;DHT22;4744;52.576;13.568;2023-07-13T12:12:53;26.50;1.00
9410;DHT22;4744;52.576;13.568;2023-07-13T12:15:21;26.60;1.00
9410;DHT22;4744;52.576;13.568;2023-07-13T12:17:50;26.40;1.00
9410;DHT22;4744;52.576;13.568;2023-07-13T12:20:22;26.40;1.00
9410;DHT22;4744;52.576;13.568;2023-07-13T12:22:51;26.50;1.00
9410;DHT22;4744;52.576;13.568;2023-07-13T12:25:18;26.80;1.00
9410;DHT22;4744;52.576;13.568;2023-07-13T12:27:47;26.90;1.00
9410;DHT22;4744;52.576;13.568;2023-07-13T12:30:26;27.00;1.00
9410;DHT22;4744;52.576;13.568;2023-07-13T12:33:01;27.10;1.00
9410;DHT22;4744;52.576;13.568;2023-07-13T12:35:29;27.10;1.00
9410;DHT22;4744;52.576;13.568;2023-07-13T12:38:00;27.00;1.00
9410;DHT22;4744;52.576;13.568;2023-07-13T12:40:32;26.90;1.00
9410;DHT22;4744;52.576;13.568;2023-07-13T12:43:01;26.70;1.00
9410;DHT22;4744;52.576;13.568;2023-07-13T12:45:30;26.70;1.00
9410;DHT22;4744;52.576;13.568;2023-07-13T12:48:03;26.80;1.00
9410;DHT22;4744;52.576;13.568;2023-07-13T12:50:37;26.80;1.00
9410;DHT22;4744;52.576;13.568;2023-07-13T12:53:13;26.80;1.00
9410;DHT22;4744;52.576;13.568;2023-07-13T12:55:42;26.80;1.00
9410;DHT22;4744;52.576;13.568;2023-07-13T12:58:16;26.80;1.00
9410;DHT22;4744;52.576;13.568;2023-07-13T13:00:49;26.90;1.00
9410;DHT22;4744;52.576;13.568;2023-07-13T13:03:25;27.00;1.00
9410;DHT22;4744;52.576;13.568;2023-07-13T13:06:00;27.00;1.00
9410;DHT22;4744;52.576;13.568;2023-07-13T13:08:29;27.10;1.00
9410;DHT22;4744;52.576;13.568;2023-07-13T13:10:56;27.00;1.00
9410;DHT22;4744;52.576;13.568;2023-07-13T13:13:23;27.00;1.00
9410;DHT22;4744;52.576;13.568;2023-07-13T13:15:50;26.90;1.00
9410;DHT22;4744;52.576;13.568;2023-07-13T13:18:18;26.80;1.00
9410;DHT22;4744;52.576;13.568;2023-07-13T13:20:48;26.70;1.00
9410;DHT22;4744;52.576;13.568;2023-07-13T13:23:17;26.50;1.00
9410;DHT22;4744;52.576;13.568;2023-07-13T13:25:45;26.40;1.00
9410;DHT22;4744;52.576;13.568;2023-07-13T13:28:14;26.40;1.00
9410;DHT22;4744;52.576;13.568;2023-07-13T13:30:42;26.30;1.00
9410;DHT22;4744;52.576;13.568;2023-07-13T13:33:10;26.40;1.00
9410;DHT22;4744;52.576;13.568;2023-07-13T13:35:37;26.40;1.00
9410;DHT22;4744;52.576;13.568;2023-07-13T13:38:11;26.50;1.00
9410;DHT22;4744;52.576;13.568;2023-07-13T13:40:40;26.50;1.00
9410;DHT22;4744;52.576;13.568;2023-07-13T13:43:15;26.60;1.00
9410;DHT22;4744;52.576;13.568;2023-07-13T13:45:43;26.60;1.00
9410;DHT22;4744;52.576;13.568;2023-07-13T13:48:15;26.60;1.00
9410;DHT22;4744;52.576;13.568;2023-07-13T13:50:42;26.60;1.00
9410;DHT22;4744;52.576;13.568;2023-07-13T13:53:12;26.50;1.00
9410;DHT22;4744;52.576;13.568;2023-07-13T13:55:40;26.50;1.00
9410;DHT22;4744;52.576;13.568;2023-07-13T13:58:08;26.50;1.00
9410;DHT22;4744;52.576;13.568;2023-07-13T14:00:35;26.50;1.00
9410;DHT22;4744;52.576;13.568;2023-07-13T14:03:02;26.60;1.00
9410;DHT22;4744;52.576;13.568;2023-07-13T14:05:30;26.40;1.00
9410;DHT22;4744;52.576;13.568;2023-07-13T14:07:57;26.30;1.00
9410;DHT22;4744;52.576;13.568;2023-07-13T14:10:26;26.20;1.00
9410;DHT22;4744;52.576;13.568;2023-07-13T14:12:55;26.20;1.00
9410;DHT22;4744;52.576;13.568;2023-07-13T14:15:25;26.20;1.00
9410;DHT22;4744;52.576;13.568;2023-07-13T14:17:52;26.10;1.00
9410;DHT22;4744;52.576;13.568;2023-07-13T14:20:21;26.10;1.00
9410;DHT22;4744;52.576;13.568;2023-07-13T14:22:50;26.10;1.00
9410;DHT22;4744;52.576;13.568;2023-07-13T14:25:18;26.20;1.00
9410;DHT22;4744;52.576;13.568;2023-07-13T14:27:49;26.20;1.00
9410;DHT22;4744;52.576;13.568;2023-07-13T14:30:19;26.10;1.00
9410;DHT22;4744;52.576;13.568;2023-07-13T14:32:47;25.90;1.00
9410;DHT22;4744;52.576;13.568;2023-07-13T14:35:17;25.80;1.00
9410;DHT22;4744;52.576;13.568;2023-07-13T14:37:45;25.80;1.00
9410;DHT22;4744;52.576;13.568;2023-07-13T14:40:14;25.70;1.00
9410;DHT22;4744;52.576;13.568;2023-07-13T14:42:42;25.60;1.00
9410;DHT22;4744;52.576;13.568;2023-07-13T14:45:14;25.60;1.00
9410;DHT22;4744;52.576;13.568;2023-07-13T14:47:42;25.60;1.00
9410;DHT22;4744;52.576;13.568;2023-07-13T14:50:14;25.60;1.00
9410;DHT22;4744;52.576;13.568;2023-07-13T14:52:43;25.60;1.00
9410;DHT22;4744;52.576;13.568;2023-07-13T14:55:13;25.60;1.00
9410;DHT22;4744;52.576;13.568;2023-07-13T14:57:41;25.60;1.00
9410;DHT22;4744;52.576;13.568;2023-07-13T15:00:16;25.60;1.00
9410;DHT22;4744;52.576;13.568;2023-07-13T15:02:44;25.60;1.00
9410;DHT22;4744;52.576;13.568;2023-07-13T15:05:17;25.60;1.00
9410;DHT22;4744;52.576;13.568;2023-07-13T15:07:44;25.60;1.00
9410;DHT22;4744;52.576;13.568;2023-07-13T15:10:16;25.60;1.00
9410;DHT22;4744;52.576;13.568;2023-07-13T15:12:44;25.60;1.00
9410;DHT22;4744;52.576;13.568;2023-07-13T15:15:11;25.60;1.00
9410;DHT22;4744;52.576;13.568;2023-07-13T15:17:41;25.60;1.00
9410;DHT22;4744;52.576;13.568;2023-07-13T15:20:17;25.60;1.00
9410;DHT22;4744;52.576;13.568;2023-07-13T15:22:45;25.60;1.00
9410;DHT22;4744;52.576;13.568;2023-07-13T15:25:16;25.70;1.00
9410;DHT22;4744;52.576;13.568;2023-07-13T15:27:43;25.70;1.00
9410;DHT22;4744;52.576;13.568;2023-07-13T15:30:11;25.60;1.00
9410;DHT22;4744;52.576;13.568;2023-07-13T15:32:41;25.70;1.00
9410;DHT22;4744;52.576;13.568;2023-07-13T15:35:14;25.80;1.00
9410;DHT22;4744;52.576;13.568;2023-07-13T15:37:42;25.90;1.00
9410;DHT22;4744;52.576;13.568;2023-07-13T15:40:10;25.90;1.00
9410;DHT22;4744;52.576;13.568;2023-07-13T15:42:38;26.00;1.00
9410;DHT22;4744;52.576;13.568;2023-07-13T15:45:15;26.00;1.00
9410;DHT22;4744;52.576;13.568;2023-07-13T15:47:44;26.00;1.00
9410;DHT22;4744;52.576;13.568;2023-07-13T15:50:15;26.10;1.00
9410;DHT22;4744;52.576;13.568;2023-07-13T15:52:43;26.10;1.00
9410;DHT22;4744;52.576;13.568;2023-07-13T15:55:12;26.00;1.00
9410;DHT22;4744;52.576;13.568;2023-07-13T15:57:41;25.90;1.00
9410;DHT22;4744;52.576;13.568;2023-07-13T16:00:19;25.90;1.00
9410;DHT22;4744;52.576;13.568;2023-07-13T16:02:48;25.90;1.00
9410;DHT22;4744;52.576;13.568;2023-07-13T16:05:16;25.80;1.00
9410;DHT22;4744;52.576;13.568;2023-07-13T16:07:43;25.60;1.00
9410;DHT22;4744;52.576;13.568;2023-07-13T16:10:16;25.50;1.00
9410;DHT22;4744;52.576;13.568;2023-07-13T16:12:44;25.40;1.00
9410;DHT22;4744;52.576;13.568;2023-07-13T16:15:15;25.20;1.00
9410;DHT22;4744;52.576;13.568;2023-07-13T16:17:45;25.20;1.00